Guiping, China
Current Conditions -  °F | °C
As of 2:00 PM on Saturday 29 Nov 2014 (Local Time) from ZGKL Reporting Station
Broken Clouds Broken Clouds  
Wind Chill: 70°   Ceiling: 5000
Heat Index: 70°   Visibility: 3mi
Dew Point: 61°   Wind: 4mph
Humidity: 73%   Direction: NA
Pressure: 29.8"   Gusts: NA
Location:  23.4°N, 110.08°E
Report Text: ZGKL 290600Z VRB02MPS 5000 SCT026 BKN050 21/16 Q1009 NOSIG
Loading
Personal Weather Stations






























Interactive Weather Map New forecast layout! Learn more

10-Day Weather Forecast

Advertisements
Track Severe Weather on mobile